Strelasund — DBVE — position and weather

sailwx.info

Track history (hours):
 
Tides and Currents Weather Stations Pressure Air Temp Water Temp Dewpoint Dewpoint Depression Visibility Wind Speed Wind Dir Waves Ship Positions

Strelasund

Last reported at 2019-Dec-05 13:29 UTC. Time now 2019-Dec-07 12:36 UTC.
Position N 54°31' E 012°35'.

Length 32 m; draft 2.1 m.

Type: Other ship. MMSI: 211378550.

Date/timePositionNaut miles runAvg speedWind from/ knotsBaromVisibWave heightAir tempDewpointWater temp
2019-Dec-05 13:29N 54°31' E 012°35'4 8.3
2019-Dec-05 13:00N 54°30' E 012°28'51 7.2
2019-Dec-05 06:00N 53°54' E 011°27'1 0.8
2019-Dec-05 05:14N 53°54' E 011°27'0 0.0
2019-Dec-05 04:56N 53°54' E 011°27'0 0.0
2019-Dec-05 00:44N 53°54' E 011°27'0 0.0
2019-Dec-04 16:58N 53°54' E 011°27'17 3.4
2019-Dec-04 12:00N 54°10' E 011°34'18 7.0
2019-Dec-04 09:27N 54°11' E 012°05'3 3.1
2019-Dec-04 08:23N 54°08' E 012°06'3 1.5
2019-Dec-04 06:26N 54°06' E 012°07'0 0.0
2019-Dec-04 04:59N 54°06' E 012°07'0 0.0
2019-Dec-04 03:59N 54°06' E 012°07'0 0.0
2019-Dec-04 03:23N 54°06' E 012°07'0 0.0
2019-Dec-04 02:26N 54°06' E 012°07'0 0.0
2019-Dec-04 01:56N 54°06' E 012°07'0 0.0
2019-Dec-04 00:29N 54°06' E 012°07'0 0.0
2019-Dec-03 21:29N 54°06' E 012°07'0 0.0
2019-Dec-03 19:35N 54°06' E 012°07'6 1.2
2019-Dec-03 14:44N 54°11' E 012°05'20 6.1
2019-Dec-03 11:30N 54°27' E 012°24'  
Track history (hours):
 
Tides and Currents Weather Stations Pressure Air Temp Water Temp Dewpoint Dewpoint Depression Visibility Wind Speed Wind Dir Waves Ship Positions

Strelasund

Last reported at 2019-Dec-05 13:29 UTC. Time now 2019-Dec-07 12:36 UTC.
Position N 54°31' E 012°35'.

Length 32 m; draft 2.1 m.

Type: Other ship. MMSI: 211378550.

Date/timePositionNaut miles runAvg speedWind from/ knotsBaromVisibWave heightAir tempDewpointWater temp
2019-Dec-05 13:29N 54°31' E 012°35'4 8.3
2019-Dec-05 13:00N 54°30' E 012°28'51 7.2
2019-Dec-05 06:00N 53°54' E 011°27'1 0.8
2019-Dec-05 05:14N 53°54' E 011°27'0 0.0
2019-Dec-05 04:56N 53°54' E 011°27'0 0.0
2019-Dec-05 00:44N 53°54' E 011°27'0 0.0
2019-Dec-04 16:58N 53°54' E 011°27'17 3.4
2019-Dec-04 12:00N 54°10' E 011°34'18 7.0
2019-Dec-04 09:27N 54°11' E 012°05'3 3.1
2019-Dec-04 08:23N 54°08' E 012°06'3 1.5
2019-Dec-04 06:26N 54°06' E 012°07'0 0.0
2019-Dec-04 04:59N 54°06' E 012°07'0 0.0
2019-Dec-04 03:59N 54°06' E 012°07'0 0.0
2019-Dec-04 03:23N 54°06' E 012°07'0 0.0
2019-Dec-04 02:26N 54°06' E 012°07'0 0.0
2019-Dec-04 01:56N 54°06' E 012°07'0 0.0
2019-Dec-04 00:29N 54°06' E 012°07'0 0.0
2019-Dec-03 21:29N 54°06' E 012°07'0 0.0
2019-Dec-03 19:35N 54°06' E 012°07'6 1.2
2019-Dec-03 14:44N 54°11' E 012°05'20 6.1
2019-Dec-03 11:30N 54°27' E 012°24'  

Dump ship's entire track history